createdAt,value
2018-05-27T00:15:22.991Z,54.8
2018-05-27T00:32:09.408Z,55.6
2018-05-27T00:48:55.737Z,56.8
2018-05-27T01:05:41.787Z,56.8
2018-05-27T01:22:27.694Z,58.0
2018-05-27T01:39:13.512Z,59.6
2018-05-27T01:55:59.146Z,60.8
2018-05-27T02:12:44.540Z,61.2
2018-05-27T02:29:29.747Z,61.2
2018-05-27T02:46:14.830Z,61.6
2018-05-27T03:02:59.783Z,62.0
2018-05-27T03:19:44.153Z,62.8
2018-05-27T03:36:28.459Z,62.8
2018-05-27T03:53:13.475Z,64.0
2018-05-27T04:09:56.855Z,65.6
2018-05-27T04:26:41.264Z,65.2
2018-05-27T04:43:25.855Z,66.4
2018-05-27T05:00:10.786Z,65.2
2018-05-27T05:16:56.107Z,64.8
2018-05-27T05:33:45.676Z,64.4
2018-05-27T05:50:27.857Z,64.0
2018-05-27T06:03:52.929Z,63.6
2018-05-27T06:20:39.725Z,62.4
2018-05-27T06:37:27.097Z,61.6
2018-05-27T06:47:31.977Z,61.2
2018-05-27T07:00:58.652Z,59.6
2018-05-27T07:14:26.129Z,58.0
2018-05-27T07:31:15.768Z,57.2
2018-05-27T07:48:05.669Z,56.8
2018-05-27T08:04:55.718Z,56.0
2018-05-27T08:21:46.469Z,54.4
2018-05-27T08:38:38.460Z,54.0
2018-05-27T08:48:44.592Z,52.8
2018-05-27T09:05:36.797Z,51.2
2018-05-27T09:22:29.163Z,49.6
2018-05-27T09:39:23.813Z,48.8
2018-05-27T09:56:14.687Z,48.8
2018-05-27T10:13:07.500Z,48.4
2018-05-27T10:30:00.622Z,48.4
2018-05-27T10:43:31.489Z,49.2
2018-05-27T11:00:26.076Z,48.0
2018-05-27T11:17:20.777Z,47.2
2018-05-27T11:34:15.701Z,47.2
2018-05-27T11:51:10.949Z,46.4
2018-05-27T12:06:24.604Z,43.6
2018-05-27T12:18:15.708Z,43.6
2018-05-27T12:23:20.608Z,41.2
2018-05-27T12:31:48.524Z,42.8
2018-05-27T12:45:21.161Z,41.6
2018-05-27T13:02:17.454Z,41.6
2018-05-27T13:07:22.627Z,41.6
2018-05-27T13:19:15.252Z,39.6
2018-05-27T13:24:20.686Z,40.4
2018-05-27T13:32:49.165Z,38.4
2018-05-27T13:41:17.598Z,39.2
2018-05-27T13:54:50.408Z,38.8
2018-05-27T14:08:22.418Z,40.0
2018-05-27T14:25:16.586Z,40.8
2018-05-27T14:42:11.284Z,41.6
2018-05-27T14:52:20.417Z,41.2
2018-05-27T15:09:16.064Z,40.4
2018-05-27T15:19:24.968Z,41.2
2018-05-27T15:22:47.696Z,42.4
2018-05-27T15:29:33.658Z,44.0
2018-05-27T15:36:17.875Z,45.6
2018-05-27T15:49:47.490Z,48.0
2018-05-27T15:56:32.089Z,49.2
2018-05-27T16:13:23.218Z,50.4
2018-05-27T16:30:14.114Z,51.2
2018-05-27T16:47:04.747Z,52.0
2018-05-27T17:03:56.006Z,52.4
2018-05-27T17:20:46.324Z,53.6
2018-05-27T17:37:37.022Z,54.0
2018-05-27T17:54:27.143Z,54.4
2018-05-27T18:04:33.363Z,56.8
2018-05-27T18:21:23.342Z,56.8
2018-05-27T18:38:13.226Z,58.8
2018-05-27T18:55:02.170Z,60.0
2018-05-27T19:11:51.294Z,61.2
2018-05-27T19:28:39.793Z,62.4
2018-05-27T19:45:28.213Z,63.2
2018-05-27T20:02:16.621Z,64.0
2018-05-27T20:19:04.762Z,64.4
2018-05-27T20:35:52.898Z,64.8
2018-05-27T20:52:40.978Z,65.6
2018-05-27T21:09:28.510Z,66.0
2018-05-27T21:26:15.967Z,66.0
2018-05-27T21:43:03.174Z,66.8
2018-05-27T21:59:50.098Z,67.6
2018-05-27T22:16:36.949Z,68.0
2018-05-27T22:33:23.641Z,68.8
2018-05-27T22:50:10.490Z,69.2
2018-05-27T23:06:57.209Z,70.0
2018-05-27T23:23:43.865Z,70.4
2018-05-27T23:40:30.441Z,70.4
2018-05-27T23:57:17.086Z,70.8
